SBMASBBV

Guest
Details From SBMA - Maraba
To SBBV - Boa Vista Intl
Flight Number -
Tags Generated
Created
Modified
Stats Distance 851 nm / 1,576 km
Max Altitude 0 ft / 0 m
Waypoints 3
Social Downloads 1
Likes 0
Share VATSIM

Download

Looking for another format? Having issues loading an existing format? Contact us
Advertisement - Login to hide

Notes

Generated

Route

SBMA BVI SBBV

ID Type Via Altitude Latitude Longitude Leg Dist Tot Dist Heading (true) Name
O SBMA APT - 0 ft / 0 m -5.37434˚ -49.14500˚ - 0 nm - -
BVI NDB - 0 ft / 0 m 2.83983˚ -60.69200˚ 850 nm 850 nm 305° / 305° BOA VISTA NDB
O SBBV APT - 0 ft / 0 m 2.84077˚ -60.70090˚ 0 nm 850 nm 276° / 276° -

Altitude Profile

Advertisement - Login to hide

Weather


0- 5 10 15 20 25 30 35+ Temperature / ° C

Clouds and Precipitation
Forecast for 2017-12-11 18:00 UTC. Updated 2 hours ago

Ground ~20,000 ft ~40,000 ft Winds

SBMA

Details ICAO SBMA (MAB)
Name Maraba
Region Brazil
Timezone America/Belem (UTC-3.0)
Stats Elevation 357 ft / 109 m (AMSL)
Location -5.368588° -49.138025°
Runways 1
Magnetic Variation 20.552° W

METAR

SBMA 111900Z 34001KT 7000 NSC 31/25 Q1008

Decode

TAF

Not found

Departure Runways

ID Width Length Bearing (true) Bearing (mag) Surface Threshold Offset Overrun Length
07 148 ft / 45 m 6,582 ft / 2,006 m 50.35° 70.90° Asphalt 0 ft / 0 m 195 ft / 59 m
25 148 ft / 45 m 6,582 ft / 2,006 m 230.35° 250.90° Asphalt 0 ft / 0 m 195 ft / 59 m

SBBV

Details ICAO SBBV (BVB)
Name Boa Vista Intl
Region Brazil
Timezone America/Boa_Vista (UTC-4.0)
Stats Elevation 275 ft / 84 m (AMSL)
Location 2.846311° -60.690068°
Runways 1
Magnetic Variation 15.417° W

METAR

SBBV 111900Z 10013KT 9999 BKN040 FEW045TCU SCT080 35/19 Q1006

Decode

TAF

TAF SBBV 111600Z 1118/1218 09010KT 9999 SCT030 FEW035TCU TX35/1118Z TN26/1208Z BECMG 1119/1121 FEW040 FEW045TCU BECMG 1123/1201 CAVOK BECMG 1209/1211 07015KT 9999 FEW020 BECMG 1215/1217 11010KT SCT040 FEW045TCU RMK PCQ

Decode

Destination Runways

ID Width Length Bearing (true) Bearing (mag) Surface Threshold Offset Overrun Length
08 148 ft / 45 m 8,871 ft / 2,704 m 62.88° 78.30° Asphalt 300 ft / 91 m 0 ft / 0 m
26 148 ft / 45 m 8,871 ft / 2,704 m 242.88° 258.30° Asphalt 300 ft / 91 m 0 ft / 0 m

Approach Navaids

Runway Type Ident Frequency Range Bearing (true) Bearing (mag) Slope Elevation
08 Localiser IBV 109.30 MHz 18 nm / 33 km 62.88° 78.29° - 274 ft / 84 m (AMSL)
08 Glidescope IBV 109.30 MHz 10 nm / 19 km 62.88° 78.29° 3.00° 274 ft / 84 m (AMSL)
08 DME IBV 109.30 MHz 18 nm / 33 km - - - 274 ft / 84 m (AMSL)